sensor_id;sensor_type;location;lat;lon;timestamp;P1;durP1;ratioP1;P2;durP2;ratioP2
11620;SDS011;5866;49.094;11.900;2023-03-20T00:00:45;8.43;;;7.72;;
11620;SDS011;5866;49.094;11.900;2023-03-20T00:03:15;9.00;;;8.20;;
11620;SDS011;5866;49.094;11.900;2023-03-20T00:05:44;8.88;;;7.97;;
11620;SDS011;5866;49.094;11.900;2023-03-20T00:08:12;9.80;;;8.23;;
11620;SDS011;5866;49.094;11.900;2023-03-20T00:10:40;9.43;;;8.53;;
11620;SDS011;5866;49.094;11.900;2023-03-20T00:13:11;9.02;;;7.65;;
11620;SDS011;5866;49.094;11.900;2023-03-20T00:15:42;9.18;;;8.38;;
11620;SDS011;5866;49.094;11.900;2023-03-20T00:18:11;10.33;;;8.17;;
11620;SDS011;5866;49.094;11.900;2023-03-20T00:20:41;9.40;;;8.50;;
11620;SDS011;5866;49.094;11.900;2023-03-20T00:23:10;9.37;;;8.37;;
11620;SDS011;5866;49.094;11.900;2023-03-20T00:25:38;9.73;;;8.87;;
11620;SDS011;5866;49.094;11.900;2023-03-20T00:28:27;10.10;;;8.83;;
11620;SDS011;5866;49.094;11.900;2023-03-20T00:31:02;9.43;;;8.43;;
11620;SDS011;5866;49.094;11.900;2023-03-20T00:33:31;9.43;;;8.70;;
11620;SDS011;5866;49.094;11.900;2023-03-20T00:36:00;9.52;;;8.63;;
11620;SDS011;5866;49.094;11.900;2023-03-20T00:38:29;8.93;;;8.13;;
11620;SDS011;5866;49.094;11.900;2023-03-20T00:40:56;10.53;;;8.23;;
11620;SDS011;5866;49.094;11.900;2023-03-20T00:43:24;9.37;;;8.37;;
11620;SDS011;5866;49.094;11.900;2023-03-20T00:45:51;8.83;;;6.63;;
11620;SDS011;5866;49.094;11.900;2023-03-20T00:48:19;9.73;;;7.17;;
11620;SDS011;5866;49.094;11.900;2023-03-20T00:50:47;8.63;;;7.80;;
11620;SDS011;5866;49.094;11.900;2023-03-20T00:53:15;7.97;;;7.30;;
11620;SDS011;5866;49.094;11.900;2023-03-20T00:55:43;8.43;;;7.67;;
11620;SDS011;5866;49.094;11.900;2023-03-20T00:58:11;8.43;;;7.60;;
11620;SDS011;5866;49.094;11.900;2023-03-20T01:00:39;8.53;;;7.73;;
11620;SDS011;5866;49.094;11.900;2023-03-20T01:03:13;8.70;;;7.80;;
11620;SDS011;5866;49.094;11.900;2023-03-20T01:05:43;8.83;;;8.13;;
11620;SDS011;5866;49.094;11.900;2023-03-20T01:08:12;8.53;;;7.77;;
11620;SDS011;5866;49.094;11.900;2023-03-20T01:10:41;8.63;;;7.80;;
11620;SDS011;5866;49.094;11.900;2023-03-20T01:13:16;9.40;;;8.50;;
11620;SDS011;5866;49.094;11.900;2023-03-20T01:15:46;9.73;;;8.87;;
11620;SDS011;5866;49.094;11.900;2023-03-20T01:18:16;9.67;;;8.70;;
11620;SDS011;5866;49.094;11.900;2023-03-20T01:20:45;9.33;;;8.53;;
11620;SDS011;5866;49.094;11.900;2023-03-20T01:23:13;11.17;;;10.07;;
11620;SDS011;5866;49.094;11.900;2023-03-20T01:25:41;11.30;;;10.03;;
11620;SDS011;5866;49.094;11.900;2023-03-20T01:28:13;11.37;;;10.50;;
11620;SDS011;5866;49.094;11.900;2023-03-20T01:30:44;12.47;;;11.40;;
11620;SDS011;5866;49.094;11.900;2023-03-20T01:33:13;10.53;;;9.73;;
11620;SDS011;5866;49.094;11.900;2023-03-20T01:35:42;14.03;;;12.93;;
11620;SDS011;5866;49.094;11.900;2023-03-20T01:38:11;16.63;;;15.47;;
11620;SDS011;5866;49.094;11.900;2023-03-20T01:40:42;14.37;;;13.27;;
11620;SDS011;5866;49.094;11.900;2023-03-20T01:43:18;18.37;;;16.97;;
11620;SDS011;5866;49.094;11.900;2023-03-20T01:45:58;16.80;;;15.60;;
11620;SDS011;5866;49.094;11.900;2023-03-20T01:48:32;15.67;;;14.47;;
11620;SDS011;5866;49.094;11.900;2023-03-20T01:51:22;18.97;;;17.40;;
11620;SDS011;5866;49.094;11.900;2023-03-20T01:53:52;19.60;;;18.10;;
11620;SDS011;5866;49.094;11.900;2023-03-20T01:56:24;17.03;;;15.77;;
11620;SDS011;5866;49.094;11.900;2023-03-20T01:58:58;21.43;;;19.93;;
11620;SDS011;5866;49.094;11.900;2023-03-20T02:01:29;19.93;;;18.30;;
11620;SDS011;5866;49.094;11.900;2023-03-20T02:03:58;15.10;;;13.70;;
11620;SDS011;5866;49.094;11.900;2023-03-20T02:06:26;14.70;;;13.50;;
11620;SDS011;5866;49.094;11.900;2023-03-20T02:08:54;14.43;;;12.57;;
11620;SDS011;5866;49.094;11.900;2023-03-20T02:11:22;18.77;;;17.17;;
11620;SDS011;5866;49.094;11.900;2023-03-20T02:13:50;17.83;;;16.33;;
11620;SDS011;5866;49.094;11.900;2023-03-20T02:16:22;17.27;;;15.67;;
11620;SDS011;5866;49.094;11.900;2023-03-20T02:18:50;16.40;;;15.00;;
11620;SDS011;5866;49.094;11.900;2023-03-20T02:21:27;13.80;;;12.50;;
11620;SDS011;5866;49.094;11.900;2023-03-20T02:27:41;15.80;;;14.30;;
11620;SDS011;5866;49.094;11.900;2023-03-20T02:30:28;16.47;;;15.23;;
11620;SDS011;5866;49.094;11.900;2023-03-20T02:36:33;12.70;;;11.50;;
11620;SDS011;5866;49.094;11.900;2023-03-20T02:39:39;12.10;;;11.00;;
11620;SDS011;5866;49.094;11.900;2023-03-20T02:42:18;12.57;;;11.53;;
11620;SDS011;5866;49.094;11.900;2023-03-20T02:44:58;13.33;;;11.93;;
11620;SDS011;5866;49.094;11.900;2023-03-20T02:47:36;13.20;;;11.73;;
11620;SDS011;5866;49.094;11.900;2023-03-20T02:50:11;13.13;;;11.93;;
11620;SDS011;5866;49.094;11.900;2023-03-20T02:52:43;13.73;;;12.53;;
11620;SDS011;5866;49.094;11.900;2023-03-20T02:55:17;13.10;;;11.90;;
11620;SDS011;5866;49.094;11.900;2023-03-20T02:57:51;13.93;;;12.47;;
11620;SDS011;5866;49.094;11.900;2023-03-20T03:00:26;14.53;;;13.33;;
11620;SDS011;5866;49.094;11.900;2023-03-20T03:03:00;13.37;;;12.20;;
11620;SDS011;5866;49.094;11.900;2023-03-20T03:05:35;15.50;;;14.00;;
11620;SDS011;5866;49.094;11.900;2023-03-20T03:08:04;18.00;;;16.40;;
11620;SDS011;5866;49.094;11.900;2023-03-20T03:10:38;16.47;;;14.87;;
11620;SDS011;5866;49.094;11.900;2023-03-20T03:13:11;15.87;;;14.43;;
11620;SDS011;5866;49.094;11.900;2023-03-20T03:15:42;16.80;;;15.07;;
11620;SDS011;5866;49.094;11.900;2023-03-20T03:18:14;16.87;;;15.37;;
11620;SDS011;5866;49.094;11.900;2023-03-20T03:20:45;16.33;;;14.73;;
11620;SDS011;5866;49.094;11.900;2023-03-20T03:23:17;14.73;;;13.43;;
11620;SDS011;5866;49.094;11.900;2023-03-20T03:25:53;15.23;;;13.73;;
11620;SDS011;5866;49.094;11.900;2023-03-20T03:28:25;15.07;;;13.77;;
11620;SDS011;5866;49.094;11.900;2023-03-20T03:31:02;14.60;;;13.27;;
11620;SDS011;5866;49.094;11.900;2023-03-20T03:33:34;14.97;;;13.57;;
11620;SDS011;5866;49.094;11.900;2023-03-20T03:36:07;17.80;;;14.67;;
11620;SDS011;5866;49.094;11.900;2023-03-20T03:38:42;18.93;;;17.23;;
11620;SDS011;5866;49.094;11.900;2023-03-20T03:41:23;20.17;;;18.43;;
11620;SDS011;5866;49.094;11.900;2023-03-20T03:43:57;57.53;;;53.80;;
11620;SDS011;5866;49.094;11.900;2023-03-20T03:46:32;82.33;;;77.40;;
11620;SDS011;5866;49.094;11.900;2023-03-20T03:49:11;62.13;;;58.27;;
11620;SDS011;5866;49.094;11.900;2023-03-20T03:51:42;50.57;;;47.20;;
11620;SDS011;5866;49.094;11.900;2023-03-20T03:54:13;48.50;;;44.83;;
11620;SDS011;5866;49.094;11.900;2023-03-20T03:56:46;51.73;;;48.10;;
11620;SDS011;5866;49.094;11.900;2023-03-20T03:59:19;53.43;;;49.73;;
11620;SDS011;5866;49.094;11.900;2023-03-20T04:01:51;54.90;;;51.17;;
11620;SDS011;5866;49.094;11.900;2023-03-20T04:04:20;44.70;;;41.20;;
11620;SDS011;5866;49.094;11.900;2023-03-20T04:06:50;37.87;;;34.63;;
11620;SDS011;5866;49.094;11.900;2023-03-20T04:09:17;46.80;;;43.17;;
11620;SDS011;5866;49.094;11.900;2023-03-20T04:11:47;38.47;;;35.43;;
11620;SDS011;5866;49.094;11.900;2023-03-20T04:14:16;39.00;;;35.97;;
11620;SDS011;5866;49.094;11.900;2023-03-20T04:16:44;41.07;;;37.67;;
11620;SDS011;5866;49.094;11.900;2023-03-20T04:19:12;48.10;;;44.53;;
11620;SDS011;5866;49.094;11.900;2023-03-20T04:21:40;50.13;;;46.17;;
11620;SDS011;5866;49.094;11.900;2023-03-20T04:24:07;49.17;;;45.27;;
11620;SDS011;5866;49.094;11.900;2023-03-20T04:26:35;49.93;;;45.93;;
11620;SDS011;5866;49.094;11.900;2023-03-20T04:29:04;40.37;;;37.13;;
11620;SDS011;5866;49.094;11.900;2023-03-20T04:31:31;36.83;;;33.67;;
11620;SDS011;5866;49.094;11.900;2023-03-20T04:33:59;41.57;;;38.27;;
11620;SDS011;5866;49.094;11.900;2023-03-20T04:36:27;37.80;;;34.33;;
11620;SDS011;5866;49.094;11.900;2023-03-20T04:38:54;39.63;;;36.27;;
11620;SDS011;5866;49.094;11.900;2023-03-20T04:41:22;38.57;;;35.40;;
11620;SDS011;5866;49.094;11.900;2023-03-20T04:43:50;38.57;;;35.37;;
11620;SDS011;5866;49.094;11.900;2023-03-20T04:46:19;41.10;;;37.57;;
11620;SDS011;5866;49.094;11.900;2023-03-20T04:48:46;41.67;;;38.13;;
11620;SDS011;5866;49.094;11.900;2023-03-20T04:51:14;36.40;;;33.37;;
11620;SDS011;5866;49.094;11.900;2023-03-20T04:53:41;36.50;;;33.27;;
11620;SDS011;5866;49.094;11.900;2023-03-20T04:56:09;32.17;;;29.10;;
11620;SDS011;5866;49.094;11.900;2023-03-20T04:58:36;31.67;;;28.50;;
11620;SDS011;5866;49.094;11.900;2023-03-20T05:01:04;30.83;;;28.15;;
11620;SDS011;5866;49.094;11.900;2023-03-20T05:03:33;28.47;;;25.57;;
11620;SDS011;5866;49.094;11.900;2023-03-20T05:06:00;25.80;;;23.30;;
11620;SDS011;5866;49.094;11.900;2023-03-20T05:08:28;24.93;;;22.37;;
11620;SDS011;5866;49.094;11.900;2023-03-20T05:10:56;25.13;;;22.50;;
11620;SDS011;5866;49.094;11.900;2023-03-20T05:13:23;25.70;;;23.07;;
11620;SDS011;5866;49.094;11.900;2023-03-20T05:15:51;26.60;;;23.83;;
11620;SDS011;5866;49.094;11.900;2023-03-20T05:18:18;29.27;;;26.05;;
11620;SDS011;5866;49.094;11.900;2023-03-20T05:20:48;24.60;;;22.20;;
11620;SDS011;5866;49.094;11.900;2023-03-20T05:23:16;24.40;;;21.90;;
11620;SDS011;5866;49.094;11.900;2023-03-20T05:25:44;21.50;;;19.40;;
11620;SDS011;5866;49.094;11.900;2023-03-20T05:28:11;19.43;;;17.43;;
11620;SDS011;5866;49.094;11.900;2023-03-20T05:30:39;20.47;;;18.37;;
11620;SDS011;5866;49.094;11.900;2023-03-20T05:33:06;21.20;;;19.20;;
11620;SDS011;5866;49.094;11.900;2023-03-20T05:35:34;22.17;;;20.20;;
11620;SDS011;5866;49.094;11.900;2023-03-20T05:38:03;20.20;;;18.20;;
11620;SDS011;5866;49.094;11.900;2023-03-20T05:40:31;20.63;;;18.63;;
11620;SDS011;5866;49.094;11.900;2023-03-20T05:42:58;20.10;;;18.10;;
11620;SDS011;5866;49.094;11.900;2023-03-20T05:45:26;21.83;;;19.53;;
11620;SDS011;5866;49.094;11.900;2023-03-20T05:47:54;20.90;;;17.83;;
11620;SDS011;5866;49.094;11.900;2023-03-20T05:50:21;23.07;;;20.57;;
11620;SDS011;5866;49.094;11.900;2023-03-20T05:52:49;27.03;;;24.13;;
11620;SDS011;5866;49.094;11.900;2023-03-20T05:55:17;26.87;;;24.20;;
11620;SDS011;5866;49.094;11.900;2023-03-20T05:57:45;27.90;;;25.10;;
11620;SDS011;5866;49.094;11.900;2023-03-20T06:00:13;27.20;;;24.57;;
11620;SDS011;5866;49.094;11.900;2023-03-20T06:02:41;27.03;;;24.23;;
11620;SDS011;5866;49.094;11.900;2023-03-20T06:05:12;30.17;;;27.10;;
11620;SDS011;5866;49.094;11.900;2023-03-20T06:07:39;27.33;;;24.42;;
11620;SDS011;5866;49.094;11.900;2023-03-20T06:10:07;26.48;;;23.92;;
11620;SDS011;5866;49.094;11.900;2023-03-20T06:12:37;26.98;;;24.17;;
11620;SDS011;5866;49.094;11.900;2023-03-20T06:15:05;24.37;;;21.90;;
11620;SDS011;5866;49.094;11.900;2023-03-20T06:17:33;26.03;;;23.20;;
11620;SDS011;5866;49.094;11.900;2023-03-20T06:20:01;23.95;;;21.48;;
11620;SDS011;5866;49.094;11.900;2023-03-20T06:22:28;24.53;;;22.17;;
11620;SDS011;5866;49.094;11.900;2023-03-20T06:24:56;27.30;;;24.47;;
11620;SDS011;5866;49.094;11.900;2023-03-20T06:27:23;26.47;;;23.77;;
11620;SDS011;5866;49.094;11.900;2023-03-20T06:29:53;28.33;;;25.52;;
11620;SDS011;5866;49.094;11.900;2023-03-20T06:32:21;26.67;;;24.27;;
11620;SDS011;5866;49.094;11.900;2023-03-20T06:34:48;30.77;;;27.92;;
11620;SDS011;5866;49.094;11.900;2023-03-20T06:37:16;30.23;;;27.17;;
11620;SDS011;5866;49.094;11.900;2023-03-20T06:39:45;35.33;;;32.30;;
11620;SDS011;5866;49.094;11.900;2023-03-20T06:42:12;34.20;;;31.25;;
11620;SDS011;5866;49.094;11.900;2023-03-20T06:44:41;34.65;;;31.55;;
11620;SDS011;5866;49.094;11.900;2023-03-20T06:47:10;32.10;;;29.27;;
11620;SDS011;5866;49.094;11.900;2023-03-20T06:49:37;35.45;;;32.53;;
11620;SDS011;5866;49.094;11.900;2023-03-20T06:52:05;35.33;;;32.20;;
11620;SDS011;5866;49.094;11.900;2023-03-20T06:54:34;34.80;;;31.80;;
11620;SDS011;5866;49.094;11.900;2023-03-20T06:57:01;30.58;;;27.85;;
11620;SDS011;5866;49.094;11.900;2023-03-20T06:59:29;25.08;;;22.65;;
11620;SDS011;5866;49.094;11.900;2023-03-20T07:01:56;20.95;;;19.02;;
11620;SDS011;5866;49.094;11.900;2023-03-20T07:04:25;15.43;;;13.77;;
11620;SDS011;5866;49.094;11.900;2023-03-20T07:06:53;14.50;;;13.10;;
11620;SDS011;5866;49.094;11.900;2023-03-20T07:09:21;14.23;;;12.85;;
11620;SDS011;5866;49.094;11.900;2023-03-20T07:11:48;13.83;;;12.43;;
11620;SDS011;5866;49.094;11.900;2023-03-20T07:14:16;12.90;;;11.70;;
11620;SDS011;5866;49.094;11.900;2023-03-20T07:16:43;12.73;;;11.35;;
11620;SDS011;5866;49.094;11.900;2023-03-20T07:19:11;12.82;;;11.38;;
11620;SDS011;5866;49.094;11.900;2023-03-20T07:21:40;12.13;;;10.93;;
11620;SDS011;5866;49.094;11.900;2023-03-20T07:24:08;12.90;;;11.70;;
11620;SDS011;5866;49.094;11.900;2023-03-20T07:26:35;12.20;;;11.10;;
11620;SDS011;5866;49.094;11.900;2023-03-20T07:29:03;11.90;;;10.77;;
11620;SDS011;5866;49.094;11.900;2023-03-20T07:31:31;12.48;;;11.35;;
11620;SDS011;5866;49.094;11.900;2023-03-20T07:33:58;13.05;;;11.75;;
11620;SDS011;5866;49.094;11.900;2023-03-20T07:36:26;13.23;;;11.98;;
11620;SDS011;5866;49.094;11.900;2023-03-20T07:38:55;13.77;;;12.57;;
11620;SDS011;5866;49.094;11.900;2023-03-20T07:41:22;13.05;;;11.85;;
11620;SDS011;5866;49.094;11.900;2023-03-20T07:43:50;14.40;;;13.02;;
11620;SDS011;5866;49.094;11.900;2023-03-20T07:46:17;11.25;;;10.18;;
11620;SDS011;5866;49.094;11.900;2023-03-20T07:48:45;12.50;;;11.30;;
11620;SDS011;5866;49.094;11.900;2023-03-20T07:51:12;13.10;;;11.70;;
11620;SDS011;5866;49.094;11.900;2023-03-20T07:53:40;15.52;;;14.13;;
11620;SDS011;5866;49.094;11.900;2023-03-20T07:56:09;14.43;;;13.23;;
11620;SDS011;5866;49.094;11.900;2023-03-20T07:58:36;13.32;;;12.32;;
11620;SDS011;5866;49.094;11.900;2023-03-20T08:01:04;12.13;;;10.95;;
11620;SDS011;5866;49.094;11.900;2023-03-20T08:03:32;8.70;;;7.90;;
11620;SDS011;5866;49.094;11.900;2023-03-20T08:05:59;8.05;;;7.25;;
11620;SDS011;5866;49.094;11.900;2023-03-20T08:08:29;7.20;;;6.53;;
11620;SDS011;5866;49.094;11.900;2023-03-20T08:10:57;7.53;;;6.82;;
11620;SDS011;5866;49.094;11.900;2023-03-20T08:13:25;9.32;;;8.52;;
11620;SDS011;5866;49.094;11.900;2023-03-20T08:15:53;10.75;;;9.80;;
11620;SDS011;5866;49.094;11.900;2023-03-20T08:18:20;10.85;;;9.82;;
11620;SDS011;5866;49.094;11.900;2023-03-20T08:20:48;8.05;;;7.35;;
11620;SDS011;5866;49.094;11.900;2023-03-20T08:23:16;8.70;;;8.00;;
11620;SDS011;5866;49.094;11.900;2023-03-20T08:25:46;7.00;;;6.40;;
11620;SDS011;5866;49.094;11.900;2023-03-20T08:28:14;6.22;;;5.72;;
11620;SDS011;5866;49.094;11.900;2023-03-20T08:30:43;6.15;;;5.63;;
11620;SDS011;5866;49.094;11.900;2023-03-20T08:33:11;6.90;;;6.30;;
11620;SDS011;5866;49.094;11.900;2023-03-20T08:35:39;7.43;;;6.53;;
11620;SDS011;5866;49.094;11.900;2023-03-20T08:38:08;6.50;;;6.00;;
11620;SDS011;5866;49.094;11.900;2023-03-20T08:40:39;7.97;;;7.22;;
11620;SDS011;5866;49.094;11.900;2023-03-20T08:43:06;7.70;;;7.00;;
11620;SDS011;5866;49.094;11.900;2023-03-20T08:45:34;7.15;;;6.55;;
11620;SDS011;5866;49.094;11.900;2023-03-20T08:48:04;7.65;;;7.00;;
11620;SDS011;5866;49.094;11.900;2023-03-20T08:50:31;7.90;;;7.20;;
11620;SDS011;5866;49.094;11.900;2023-03-20T08:52:59;9.05;;;8.25;;
11620;SDS011;5866;49.094;11.900;2023-03-20T08:55:26;14.95;;;13.85;;
11620;SDS011;5866;49.094;11.900;2023-03-20T08:57:54;9.48;;;8.65;;
11620;SDS011;5866;49.094;11.900;2023-03-20T09:00:22;10.25;;;9.45;;
11620;SDS011;5866;49.094;11.900;2023-03-20T09:02:50;9.30;;;8.70;;
11620;SDS011;5866;49.094;11.900;2023-03-20T09:05:19;8.75;;;8.05;;
11620;SDS011;5866;49.094;11.900;2023-03-20T09:07:47;9.13;;;8.52;;
11620;SDS011;5866;49.094;11.900;2023-03-20T09:10:14;6.45;;;5.95;;
11620;SDS011;5866;49.094;11.900;2023-03-20T09:12:42;6.97;;;6.47;;
11620;SDS011;5866;49.094;11.900;2023-03-20T09:15:10;7.20;;;6.60;;
11620;SDS011;5866;49.094;11.900;2023-03-20T09:17:37;9.00;;;8.13;;
11620;SDS011;5866;49.094;11.900;2023-03-20T09:20:05;6.75;;;6.15;;
11620;SDS011;5866;49.094;11.900;2023-03-20T09:22:35;7.28;;;6.68;;
11620;SDS011;5866;49.094;11.900;2023-03-20T09:25:06;6.57;;;6.07;;
11620;SDS011;5866;49.094;11.900;2023-03-20T09:27:34;6.32;;;5.85;;
11620;SDS011;5866;49.094;11.900;2023-03-20T09:30:02;6.75;;;6.25;;
11620;SDS011;5866;49.094;11.900;2023-03-20T09:32:31;6.93;;;6.43;;
11620;SDS011;5866;49.094;11.900;2023-03-20T09:34:59;7.75;;;7.15;;
11620;SDS011;5866;49.094;11.900;2023-03-20T09:37:27;7.20;;;6.70;;
11620;SDS011;5866;49.094;11.900;2023-03-20T09:39:57;7.32;;;6.82;;
11620;SDS011;5866;49.094;11.900;2023-03-20T09:42:27;6.10;;;5.68;;
11620;SDS011;5866;49.094;11.900;2023-03-20T09:45:02;5.72;;;5.32;;
11620;SDS011;5866;49.094;11.900;2023-03-20T09:47:36;5.72;;;5.22;;
11620;SDS011;5866;49.094;11.900;2023-03-20T09:50:16;5.93;;;5.53;;
11620;SDS011;5866;49.094;11.900;2023-03-20T09:52:53;5.43;;;5.03;;
11620;SDS011;5866;49.094;11.900;2023-03-20T09:55:29;7.57;;;7.07;;
11620;SDS011;5866;49.094;11.900;2023-03-20T09:58:02;7.10;;;5.75;;
11620;SDS011;5866;49.094;11.900;2023-03-20T10:00:33;6.80;;;6.40;;
11620;SDS011;5866;49.094;11.900;2023-03-20T10:03:03;7.40;;;6.90;;
11620;SDS011;5866;49.094;11.900;2023-03-20T10:05:33;7.22;;;6.80;;
11620;SDS011;5866;49.094;11.900;2023-03-20T10:08:04;7.70;;;7.20;;
11620;SDS011;5866;49.094;11.900;2023-03-20T10:10:38;7.32;;;6.82;;
11620;SDS011;5866;49.094;11.900;2023-03-20T10:13:18;7.85;;;7.35;;
11620;SDS011;5866;49.094;11.900;2023-03-20T10:16:12;7.05;;;6.65;;
11620;SDS011;5866;49.094;11.900;2023-03-20T10:18:48;7.03;;;6.63;;
11620;SDS011;5866;49.094;11.900;2023-03-20T10:21:23;7.60;;;7.10;;
11620;SDS011;5866;49.094;11.900;2023-03-20T10:23:59;6.18;;;5.78;;
11620;SDS011;5866;49.094;11.900;2023-03-20T10:26:30;5.90;;;5.60;;
11620;SDS011;5866;49.094;11.900;2023-03-20T10:29:01;4.82;;;4.53;;
11620;SDS011;5866;49.094;11.900;2023-03-20T10:31:37;5.90;;;5.32;;
11620;SDS011;5866;49.094;11.900;2023-03-20T10:34:16;4.90;;;4.57;;
11620;SDS011;5866;49.094;11.900;2023-03-20T10:36:54;4.85;;;4.55;;
11620;SDS011;5866;49.094;11.900;2023-03-20T10:39:37;3.47;;;3.17;;
11620;SDS011;5866;49.094;11.900;2023-03-20T10:42:17;2.83;;;2.63;;
11620;SDS011;5866;49.094;11.900;2023-03-20T10:44:49;3.25;;;2.95;;
11620;SDS011;5866;49.094;11.900;2023-03-20T10:47:22;3.35;;;3.00;;
11620;SDS011;5866;49.094;11.900;2023-03-20T10:49:53;2.88;;;2.67;;
11620;SDS011;5866;49.094;11.900;2023-03-20T10:52:25;2.65;;;2.45;;
11620;SDS011;5866;49.094;11.900;2023-03-20T10:54:56;3.10;;;2.83;;
11620;SDS011;5866;49.094;11.900;2023-03-20T10:57:28;2.50;;;2.30;;
11620;SDS011;5866;49.094;11.900;2023-03-20T10:59:57;2.90;;;2.70;;
11620;SDS011;5866;49.094;11.900;2023-03-20T11:02:26;2.63;;;2.42;;
11620;SDS011;5866;49.094;11.900;2023-03-20T11:04:56;2.33;;;2.13;;
11620;SDS011;5866;49.094;11.900;2023-03-20T11:07:27;2.60;;;2.40;;
11620;SDS011;5866;49.094;11.900;2023-03-20T11:10:08;2.53;;;2.00;;
11620;SDS011;5866;49.094;11.900;2023-03-20T11:12:41;2.25;;;2.15;;
11620;SDS011;5866;49.094;11.900;2023-03-20T11:15:14;2.10;;;2.00;;
11620;SDS011;5866;49.094;11.900;2023-03-20T11:17:50;2.53;;;2.33;;
11620;SDS011;5866;49.094;11.900;2023-03-20T11:20:21;2.33;;;2.22;;
11620;SDS011;5866;49.094;11.900;2023-03-20T11:22:50;2.70;;;2.30;;
11620;SDS011;5866;49.094;11.900;2023-03-20T11:25:27;1.90;;;1.80;;
11620;SDS011;5866;49.094;11.900;2023-03-20T11:27:58;2.08;;;1.98;;
11620;SDS011;5866;49.094;11.900;2023-03-20T11:30:46;2.08;;;1.90;;
11620;SDS011;5866;49.094;11.900;2023-03-20T11:33:30;2.85;;;1.80;;
11620;SDS011;5866;49.094;11.900;2023-03-20T11:36:00;1.85;;;1.75;;
11620;SDS011;5866;49.094;11.900;2023-03-20T11:38:28;2.20;;;1.90;;
11620;SDS011;5866;49.094;11.900;2023-03-20T11:40:57;2.67;;;1.95;;
11620;SDS011;5866;49.094;11.900;2023-03-20T11:43:26;2.40;;;2.20;;
11620;SDS011;5866;49.094;11.900;2023-03-20T11:45:56;2.30;;;2.20;;
11620;SDS011;5866;49.094;11.900;2023-03-20T11:48:35;3.33;;;3.00;;
11620;SDS011;5866;49.094;11.900;2023-03-20T11:51:04;3.97;;;2.50;;
11620;SDS011;5866;49.094;11.900;2023-03-20T11:53:34;2.08;;;1.98;;
11620;SDS011;5866;49.094;11.900;2023-03-20T11:56:07;2.67;;;2.47;;
11620;SDS011;5866;49.094;11.900;2023-03-20T11:58:45;3.72;;;3.42;;
11620;SDS011;5866;49.094;11.900;2023-03-20T12:01:21;2.92;;;2.72;;
11620;SDS011;5866;49.094;11.900;2023-03-20T12:03:50;2.90;;;2.70;;
11620;SDS011;5866;49.094;11.900;2023-03-20T12:06:21;3.10;;;2.90;;
11620;SDS011;5866;49.094;11.900;2023-03-20T12:08:53;3.42;;;3.20;;
11620;SDS011;5866;49.094;11.900;2023-03-20T12:11:33;4.18;;;3.97;;
11620;SDS011;5866;49.094;11.900;2023-03-20T12:14:11;4.60;;;4.20;;
11620;SDS011;5866;49.094;11.900;2023-03-20T12:16:46;4.22;;;4.00;;
11620;SDS011;5866;49.094;11.900;2023-03-20T12:19:19;3.40;;;3.20;;
11620;SDS011;5866;49.094;11.900;2023-03-20T12:21:54;4.25;;;3.92;;
11620;SDS011;5866;49.094;11.900;2023-03-20T12:24:30;4.05;;;3.75;;
11620;SDS011;5866;49.094;11.900;2023-03-20T12:27:12;3.20;;;3.00;;
11620;SDS011;5866;49.094;11.900;2023-03-20T12:29:48;3.40;;;3.15;;
11620;SDS011;5866;49.094;11.900;2023-03-20T12:32:19;3.72;;;3.53;;
11620;SDS011;5866;49.094;11.900;2023-03-20T12:34:52;2.90;;;2.70;;
11620;SDS011;5866;49.094;11.900;2023-03-20T12:37:23;2.95;;;2.75;;
11620;SDS011;5866;49.094;11.900;2023-03-20T12:39:52;3.67;;;3.47;;
11620;SDS011;5866;49.094;11.900;2023-03-20T12:42:26;3.00;;;2.80;;
11620;SDS011;5866;49.094;11.900;2023-03-20T12:45:05;3.55;;;3.35;;
11620;SDS011;5866;49.094;11.900;2023-03-20T12:50:38;3.38;;;3.17;;
11620;SDS011;5866;49.094;11.900;2023-03-20T12:53:19;3.70;;;3.50;;
11620;SDS011;5866;49.094;11.900;2023-03-20T12:56:00;3.05;;;2.85;;
11620;SDS011;5866;49.094;11.900;2023-03-20T12:58:38;3.60;;;3.40;;
11620;SDS011;5866;49.094;11.900;2023-03-20T13:01:13;3.53;;;3.33;;
11620;SDS011;5866;49.094;11.900;2023-03-20T13:03:54;3.97;;;3.67;;
11620;SDS011;5866;49.094;11.900;2023-03-20T13:06:42;3.33;;;3.13;;
11620;SDS011;5866;49.094;11.900;2023-03-20T13:12:25;3.33;;;2.90;;
11620;SDS011;5866;49.094;11.900;2023-03-20T13:15:06;4.65;;;4.32;;
11620;SDS011;5866;49.094;11.900;2023-03-20T13:17:43;4.18;;;3.80;;
11620;SDS011;5866;49.094;11.900;2023-03-20T13:20:18;3.13;;;2.83;;
11620;SDS011;5866;49.094;11.900;2023-03-20T13:22:53;3.88;;;3.58;;
11620;SDS011;5866;49.094;11.900;2023-03-20T13:25:33;3.00;;;2.80;;
11620;SDS011;5866;49.094;11.900;2023-03-20T13:28:11;2.88;;;2.67;;
11620;SDS011;5866;49.094;11.900;2023-03-20T13:30:49;3.55;;;3.35;;
11620;SDS011;5866;49.094;11.900;2023-03-20T13:33:29;3.58;;;3.30;;
11620;SDS011;5866;49.094;11.900;2023-03-20T13:36:09;3.28;;;3.08;;
11620;SDS011;5866;49.094;11.900;2023-03-20T13:38:51;3.15;;;2.95;;
11620;SDS011;5866;49.094;11.900;2023-03-20T13:41:24;2.92;;;2.72;;
11620;SDS011;5866;49.094;11.900;2023-03-20T13:43:53;2.70;;;2.60;;
11620;SDS011;5866;49.094;11.900;2023-03-20T13:46:26;3.70;;;3.50;;
11620;SDS011;5866;49.094;11.900;2023-03-20T13:49:01;3.83;;;3.63;;
11620;SDS011;5866;49.094;11.900;2023-03-20T13:51:35;3.72;;;3.53;;
11620;SDS011;5866;49.094;11.900;2023-03-20T13:54:12;2.90;;;2.70;;
11620;SDS011;5866;49.094;11.900;2023-03-20T13:56:47;2.58;;;2.47;;
11620;SDS011;5866;49.094;11.900;2023-03-20T14:02:20;2.80;;;2.60;;
11620;SDS011;5866;49.094;11.900;2023-03-20T14:04:57;2.90;;;2.70;;
11620;SDS011;5866;49.094;11.900;2023-03-20T14:07:29;2.58;;;2.47;;
11620;SDS011;5866;49.094;11.900;2023-03-20T14:13:03;3.42;;;3.13;;
11620;SDS011;5866;49.094;11.900;2023-03-20T14:15:33;2.80;;;2.60;;
11620;SDS011;5866;49.094;11.900;2023-03-20T14:18:03;5.95;;;2.88;;
11620;SDS011;5866;49.094;11.900;2023-03-20T14:20:35;2.50;;;2.40;;
11620;SDS011;5866;49.094;11.900;2023-03-20T14:23:05;2.78;;;2.58;;
11620;SDS011;5866;49.094;11.900;2023-03-20T14:25:42;3.20;;;2.15;;
11620;SDS011;5866;49.094;11.900;2023-03-20T14:28:21;2.13;;;2.03;;
11620;SDS011;5866;49.094;11.900;2023-03-20T14:33:45;2.35;;;2.25;;
11620;SDS011;5866;49.094;11.900;2023-03-20T14:36:27;2.58;;;2.38;;
11620;SDS011;5866;49.094;11.900;2023-03-20T14:38:57;2.72;;;2.53;;
11620;SDS011;5866;49.094;11.900;2023-03-20T14:41:34;2.53;;;2.33;;
11620;SDS011;5866;49.094;11.900;2023-03-20T14:44:14;2.67;;;2.47;;
11620;SDS011;5866;49.094;11.900;2023-03-20T14:46:50;2.55;;;2.40;;
11620;SDS011;5866;49.094;11.900;2023-03-20T14:49:23;2.75;;;2.60;;
11620;SDS011;5866;49.094;11.900;2023-03-20T14:52:08;2.72;;;2.53;;
11620;SDS011;5866;49.094;11.900;2023-03-20T14:54:50;3.00;;;2.80;;
11620;SDS011;5866;49.094;11.900;2023-03-20T14:57:20;3.28;;;3.08;;
11620;SDS011;5866;49.094;11.900;2023-03-20T15:00:14;2.63;;;2.53;;
11620;SDS011;5866;49.094;11.900;2023-03-20T15:02:44;2.97;;;2.80;;
11620;SDS011;5866;49.094;11.900;2023-03-20T15:05:22;2.83;;;2.65;;
11620;SDS011;5866;49.094;11.900;2023-03-20T15:07:56;2.65;;;2.45;;
11620;SDS011;5866;49.094;11.900;2023-03-20T15:10:29;3.67;;;2.95;;
11620;SDS011;5866;49.094;11.900;2023-03-20T15:12:56;4.10;;;3.70;;
11620;SDS011;5866;49.094;11.900;2023-03-20T15:15:25;3.63;;;3.42;;
11620;SDS011;5866;49.094;11.900;2023-03-20T15:17:54;3.42;;;3.13;;
11620;SDS011;5866;49.094;11.900;2023-03-20T15:20:23;3.38;;;3.08;;
11620;SDS011;5866;49.094;11.900;2023-03-20T15:22:52;4.70;;;4.05;;